Bookmark and Share
Track history (hours):
 

Greta

Last reported at 2012-Sep-18 09:32 UTC. Time now 2014-Apr-24 02:08 UTC.
Position N 40°51' E 029°17'.
Warning: this ship's position is years out of date!

Length 95 m; draft 3.2 m.

Type: Ship. MMSI: 306506000.

NotesDate/timePositionNaut miles runAvg speedWind from/ knotsBaromVisibWave heightAir tempDewpointWater temp
2012-Sep-18 09:32N 40°51' E 029°17'0 0.0
2012-Sep-18 07:26N 40°51' E 029°17'0 0.0
2012-Sep-18 06:26N 40°51' E 029°17'  
2012-Sep-14 14:23N 40°51' E 029°17'0 0.0
2012-Sep-14 12:29N 40°51' E 029°17'0 0.0
2012-Sep-14 09:29N 40°51' E 029°17'0 0.0
2012-Sep-14 08:29N 40°51' E 029°17'0 0.0
2012-Sep-14 07:29N 40°51' E 029°17'0 0.0
2012-Sep-14 06:29N 40°51' E 029°17'0 0.0
2012-Sep-13 13:29N 40°51' E 029°17'0 0.0
2012-Sep-13 12:29N 40°51' E 029°17'0 0.0
2012-Sep-13 10:35N 40°51' E 029°17'0 0.0
2012-Sep-13 08:29N 40°51' E 029°17'0 0.0
2012-Sep-13 07:29N 40°51' E 029°17'0 0.0
2012-Sep-13 06:29N 40°51' E 029°17'0 0.0
2012-Sep-12 14:29N 40°51' E 029°17'0 0.0
2012-Sep-12 13:29N 40°51' E 029°17'0 0.0
2012-Sep-12 12:29N 40°51' E 029°17'0 0.0
2012-Sep-12 11:29N 40°51' E 029°17'0 0.0
2012-Sep-12 10:35N 40°51' E 029°17'  
2012-Sep-08 18:32N 37°35' E 025°45'9 9.2
2012-Sep-08 17:33N 37°29' E 025°36'9 8.7
2012-Sep-08 16:33N 37°25' E 025°26'1010.1
2012-Sep-08 15:33N 37°21' E 025°15'10 9.6
2012-Sep-08 14:33N 37°17' E 025°04'10 9.8
2012-Sep-08 13:33N 37°14' E 024°52'10 9.7
2012-Sep-08 12:33N 37°10' E 024°41'9 8.9
2012-Sep-08 11:33N 37°06' E 024°31'9 9.5
2012-Sep-08 10:35N 37°03' E 024°20'9 8.8
2012-Sep-08 09:33N 37°01' E 024°09'  

Dump ship's entire track history

sailing weather and tide predictions

Greta — PJHU — position and weather